createdAt,value
2023-07-02T00:00:31.406Z,21.16
2023-07-02T00:03:34.561Z,21.20
2023-07-02T00:06:41.472Z,21.20
2023-07-02T00:09:44.547Z,21.17
2023-07-02T00:12:47.132Z,21.23
2023-07-02T00:15:49.872Z,21.25
2023-07-02T00:18:55.242Z,21.25
2023-07-02T00:21:59.332Z,21.25
2023-07-02T00:25:02.030Z,21.24
2023-07-02T00:28:05.306Z,21.20
2023-07-02T00:31:09.723Z,21.10
2023-07-02T00:34:12.752Z,21.12
2023-07-02T00:37:17.101Z,21.10
2023-07-02T00:40:20.112Z,21.08
2023-07-02T00:43:24.050Z,21.10
2023-07-02T00:46:27.360Z,21.13
2023-07-02T00:49:29.942Z,21.21
2023-07-02T00:52:32.674Z,21.23
2023-07-02T00:55:35.383Z,21.33
2023-07-02T00:58:59.797Z,21.33
2023-07-02T01:02:04.530Z,21.34
2023-07-02T01:05:07.785Z,21.35
2023-07-02T01:08:12.757Z,21.28
2023-07-02T01:11:15.854Z,21.27
2023-07-02T01:14:26.208Z,21.21
2023-07-02T01:17:38.330Z,21.17
2023-07-02T01:20:41.270Z,21.13
2023-07-02T01:23:44.693Z,21.12
2023-07-02T01:26:48.216Z,21.10
2023-07-02T01:29:54.902Z,21.07
2023-07-02T01:32:57.421Z,21.05
2023-07-02T01:36:00.259Z,21.03
2023-07-02T01:39:03.489Z,20.99
2023-07-02T01:42:18.808Z,20.93
2023-07-02T01:45:21.520Z,20.88
2023-07-02T01:48:24.277Z,20.93
2023-07-02T01:51:26.706Z,20.89
2023-07-02T01:54:29.949Z,20.88
2023-07-02T01:57:32.402Z,20.87
2023-07-02T02:00:35.188Z,20.88
2023-07-02T02:03:38.365Z,20.89
2023-07-02T02:06:42.734Z,20.94
2023-07-02T02:09:45.624Z,20.93
2023-07-02T02:12:48.384Z,20.91
2023-07-02T02:15:51.352Z,20.96
2023-07-02T02:18:54.429Z,20.88
2023-07-02T02:21:57.170Z,20.84
2023-07-02T02:24:59.651Z,20.82
2023-07-02T02:28:02.758Z,20.78
2023-07-02T02:31:05.879Z,20.75
2023-07-02T02:34:09.202Z,20.74
2023-07-02T02:37:11.909Z,20.72
2023-07-02T02:40:15.113Z,20.69
2023-07-02T02:43:18.339Z,20.65
2023-07-02T02:46:25.281Z,20.59
2023-07-02T02:49:28.250Z,20.66
2023-07-02T02:52:31.215Z,20.61
2023-07-02T02:55:34.015Z,20.66
2023-07-02T02:58:36.784Z,20.71
2023-07-02T03:01:39.921Z,20.65
2023-07-02T03:04:45.598Z,20.67
2023-07-02T03:07:48.492Z,20.66
2023-07-02T03:10:51.680Z,20.65
2023-07-02T03:13:54.537Z,20.64
2023-07-02T03:16:57.424Z,20.64
2023-07-02T03:20:00.117Z,20.63
2023-07-02T03:23:02.873Z,20.63
2023-07-02T03:26:05.297Z,20.69
2023-07-02T03:29:08.408Z,20.69
2023-07-02T03:32:10.883Z,20.69
2023-07-02T03:35:13.796Z,20.71
2023-07-02T03:38:16.285Z,20.72
2023-07-02T03:41:18.949Z,20.73
2023-07-02T03:44:21.724Z,20.78
2023-07-02T03:47:24.438Z,20.77
2023-07-02T03:50:27.169Z,20.80
2023-07-02T03:53:29.850Z,20.83
2023-07-02T03:56:32.284Z,20.84
2023-07-02T03:59:35.927Z,20.87
2023-07-02T04:02:38.866Z,20.87
2023-07-02T04:05:41.900Z,20.93
2023-07-02T04:08:45.224Z,20.94
2023-07-02T04:11:47.962Z,20.96
2023-07-02T04:14:50.484Z,20.98
2023-07-02T04:17:53.823Z,20.99
2023-07-02T04:20:57.386Z,21.01
2023-07-02T04:24:00.398Z,21.01
2023-07-02T04:27:30.471Z,21.03
2023-07-02T04:30:26.770Z,21.06
2023-07-02T04:33:36.696Z,21.04
2023-07-02T04:36:39.679Z,21.06
2023-07-02T04:39:42.437Z,21.10
2023-07-02T04:42:48.289Z,21.14
2023-07-02T04:45:51.006Z,21.16
2023-07-02T04:48:54.156Z,21.22
2023-07-02T04:51:56.893Z,21.28
2023-07-02T04:55:00.009Z,21.36
2023-07-02T04:58:02.534Z,21.42
2023-07-02T05:01:06.108Z,21.52
2023-07-02T05:04:11.333Z,21.62
2023-07-02T05:07:14.316Z,21.75
2023-07-02T05:10:16.961Z,21.84
2023-07-02T05:13:19.759Z,21.99
2023-07-02T05:16:22.333Z,22.09
2023-07-02T05:19:25.502Z,22.26
2023-07-02T05:22:28.048Z,22.37
2023-07-02T05:25:31.146Z,22.51
2023-07-02T05:28:33.888Z,22.69
2023-07-02T05:31:38.515Z,22.77
2023-07-02T05:34:55.804Z,22.87
2023-07-02T05:38:00.068Z,23.02
2023-07-02T05:41:04.745Z,23.07
2023-07-02T05:44:07.764Z,23.41
2023-07-02T05:47:10.291Z,23.82
2023-07-02T05:50:13.444Z,24.49
2023-07-02T05:53:16.012Z,24.79
2023-07-02T05:56:19.591Z,24.63
2023-07-02T05:59:22.295Z,24.92
2023-07-02T06:02:25.095Z,25.41
2023-07-02T06:05:27.965Z,26.03
2023-07-02T06:08:30.705Z,26.33
2023-07-02T06:11:33.725Z,26.23
2023-07-02T06:14:36.257Z,26.09
2023-07-02T06:17:39.109Z,25.97
2023-07-02T06:20:41.662Z,25.42
2023-07-02T06:23:46.089Z,25.79
2023-07-02T06:26:48.664Z,26.18
2023-07-02T06:29:52.819Z,26.36
2023-07-02T06:32:56.266Z,26.61
2023-07-02T06:35:59.420Z,26.89
2023-07-02T06:39:02.281Z,27.55
2023-07-02T06:42:05.275Z,27.86
2023-07-02T06:45:08.844Z,27.90
2023-07-02T06:48:11.899Z,27.66
2023-07-02T06:51:16.107Z,27.46
2023-07-02T06:54:18.959Z,27.57
2023-07-02T06:57:21.733Z,26.76
2023-07-02T07:00:24.880Z,27.47
2023-07-02T07:03:27.429Z,27.38
2023-07-02T07:06:30.717Z,28.08
2023-07-02T07:09:33.226Z,28.16
2023-07-02T07:12:36.365Z,28.66
2023-07-02T07:15:39.595Z,28.75
2023-07-02T07:18:44.690Z,27.73
2023-07-02T07:21:47.363Z,28.20
2023-07-02T07:24:50.127Z,28.08
2023-07-02T07:27:53.541Z,28.07
2023-07-02T07:30:56.525Z,27.81
2023-07-02T07:33:59.049Z,27.21
2023-07-02T07:37:02.072Z,27.95
2023-07-02T07:40:07.278Z,28.59
2023-07-02T07:43:10.097Z,28.45
2023-07-02T07:46:13.064Z,28.62
2023-07-02T07:49:16.110Z,29.03
2023-07-02T07:52:18.770Z,29.27
2023-07-02T07:55:21.730Z,29.33
2023-07-02T07:58:25.605Z,29.78
2023-07-02T08:01:29.382Z,29.81
2023-07-02T08:04:32.572Z,29.96
2023-07-02T08:07:35.409Z,29.76
2023-07-02T08:10:38.346Z,30.24
2023-07-02T08:13:41.067Z,30.02
2023-07-02T08:16:45.443Z,30.20
2023-07-02T08:19:47.965Z,30.46
2023-07-02T08:22:52.502Z,30.96
2023-07-02T08:25:55.303Z,31.33
2023-07-02T08:28:58.333Z,31.40
2023-07-02T08:32:01.069Z,30.93
2023-07-02T08:35:05.405Z,30.96
2023-07-02T08:38:09.465Z,30.21
2023-07-02T08:41:13.539Z,30.11
2023-07-02T08:44:20.997Z,29.67
2023-07-02T08:47:24.189Z,29.55
2023-07-02T08:50:26.928Z,29.90
2023-07-02T08:53:34.842Z,29.53
2023-07-02T08:56:37.622Z,30.10
2023-07-02T08:59:40.677Z,30.44
2023-07-02T09:02:43.134Z,30.25
2023-07-02T09:05:53.588Z,30.95
2023-07-02T09:09:05.055Z,30.99
2023-07-02T09:12:08.712Z,31.03
2023-07-02T09:15:11.481Z,31.42
2023-07-02T09:18:22.311Z,31.41
2023-07-02T09:21:27.656Z,30.61
2023-07-02T09:24:32.416Z,30.25
2023-07-02T09:27:42.538Z,29.94
2023-07-02T09:30:56.569Z,29.76
2023-07-02T09:34:03.818Z,29.84
2023-07-02T09:37:07.330Z,30.51
2023-07-02T09:40:10.545Z,30.08
2023-07-02T09:43:13.826Z,30.22
2023-07-02T09:46:16.634Z,28.94
2023-07-02T09:49:21.513Z,29.26
2023-07-02T09:52:24.751Z,30.82
2023-07-02T09:55:28.042Z,31.50
2023-07-02T09:58:32.968Z,30.49
2023-07-02T10:01:36.122Z,30.83
2023-07-02T10:04:49.324Z,30.21
2023-07-02T10:07:52.289Z,30.29
2023-07-02T10:10:55.352Z,30.92
2023-07-02T10:14:01.259Z,31.21
2023-07-02T10:17:04.670Z,31.14
2023-07-02T10:20:13.108Z,31.39
2023-07-02T10:23:16.277Z,32.07
2023-07-02T10:26:20.162Z,32.09
2023-07-02T10:29:25.507Z,32.09
2023-07-02T10:32:32.449Z,30.82
2023-07-02T10:35:35.888Z,31.78
2023-07-02T10:38:38.415Z,32.29
2023-07-02T10:41:41.613Z,32.16
2023-07-02T10:44:54.256Z,32.44
2023-07-02T10:47:57.325Z,32.17
2023-07-02T10:50:59.969Z,31.99
2023-07-02T10:54:05.732Z,32.48
2023-07-02T10:57:09.179Z,32.41
2023-07-02T11:00:12.727Z,32.65
2023-07-02T11:03:20.398Z,32.65
2023-07-02T11:06:23.356Z,32.65
2023-07-02T11:09:26.150Z,32.91
2023-07-02T11:12:31.969Z,32.89
2023-07-02T11:15:39.717Z,32.65
2023-07-02T11:18:42.533Z,32.73
2023-07-02T11:21:53.072Z,32.40
2023-07-02T11:24:56.178Z,31.99
2023-07-02T11:28:06.131Z,32.50
2023-07-02T11:31:10.329Z,32.30
2023-07-02T11:34:18.988Z,32.84
2023-07-02T11:37:22.532Z,32.55
2023-07-02T11:40:24.952Z,32.11
2023-07-02T11:43:27.818Z,32.52
2023-07-02T11:46:30.409Z,32.63
2023-07-02T11:49:33.768Z,32.29
2023-07-02T11:52:36.296Z,32.89
2023-07-02T11:55:39.175Z,32.24
2023-07-02T11:58:43.180Z,32.72
2023-07-02T12:01:45.962Z,33.05
2023-07-02T12:04:49.074Z,32.38
2023-07-02T12:07:52.632Z,32.67
2023-07-02T12:10:55.541Z,32.25
2023-07-02T12:13:58.181Z,32.16
2023-07-02T12:17:05.108Z,32.22
2023-07-02T12:20:08.337Z,31.97
2023-07-02T12:23:13.921Z,32.06
2023-07-02T12:26:16.562Z,31.63
2023-07-02T12:29:19.498Z,30.92
2023-07-02T12:32:22.099Z,31.41
2023-07-02T12:35:25.135Z,31.69
2023-07-02T12:38:27.776Z,31.75
2023-07-02T12:41:31.164Z,31.97
2023-07-02T12:44:33.823Z,32.33
2023-07-02T12:47:36.634Z,32.08
2023-07-02T12:50:39.774Z,32.21
2023-07-02T12:53:42.488Z,31.35
2023-07-02T12:56:45.173Z,31.38
2023-07-02T12:59:48.183Z,30.14
2023-07-02T13:03:02.769Z,30.88
2023-07-02T13:06:07.215Z,31.07
2023-07-02T13:09:10.192Z,29.86
2023-07-02T13:12:13.381Z,29.83
2023-07-02T13:15:15.882Z,30.10
2023-07-02T13:18:19.008Z,30.70
2023-07-02T13:21:21.730Z,29.95
2023-07-02T13:24:24.875Z,29.71
2023-07-02T13:27:27.349Z,29.27
2023-07-02T13:30:32.162Z,29.81
2023-07-02T13:33:35.035Z,29.96
2023-07-02T13:36:37.743Z,29.67
2023-07-02T13:39:40.383Z,29.43
2023-07-02T13:42:43.711Z,29.07
2023-07-02T13:45:46.359Z,29.20
2023-07-02T13:48:49.299Z,28.54
2023-07-02T13:51:52.030Z,28.60
2023-07-02T13:54:55.107Z,28.74
2023-07-02T13:57:58.491Z,29.28
2023-07-02T14:01:01.522Z,29.42
2023-07-02T14:04:05.653Z,29.30
2023-07-02T14:07:08.414Z,29.84
2023-07-02T14:10:13.601Z,29.86
2023-07-02T14:13:16.078Z,30.23
2023-07-02T14:16:18.987Z,30.59
2023-07-02T14:19:21.790Z,30.67
2023-07-02T14:22:24.824Z,30.76
2023-07-02T14:25:40.694Z,30.86
2023-07-02T14:28:44.661Z,31.02
2023-07-02T14:31:47.383Z,30.46
2023-07-02T14:34:50.239Z,30.54
2023-07-02T14:37:53.136Z,30.43
2023-07-02T14:40:57.341Z,29.90
2023-07-02T14:43:59.997Z,29.54
2023-07-02T14:47:03.078Z,29.98
2023-07-02T14:50:06.745Z,29.98
2023-07-02T14:53:09.505Z,30.04
2023-07-02T14:56:12.216Z,29.83
2023-07-02T14:59:15.367Z,29.83
2023-07-02T15:02:18.290Z,29.68
2023-07-02T15:05:21.357Z,29.33
2023-07-02T15:08:24.129Z,28.82
2023-07-02T15:11:29.247Z,29.18
2023-07-02T15:14:32.784Z,29.28
2023-07-02T15:17:36.365Z,29.21
2023-07-02T15:20:39.747Z,28.98
2023-07-02T15:23:42.529Z,28.39
2023-07-02T15:26:45.309Z,28.21
2023-07-02T15:29:48.477Z,28.45
2023-07-02T15:32:51.342Z,28.63
2023-07-02T15:35:54.460Z,28.75
2023-07-02T15:38:57.299Z,28.63
2023-07-02T15:42:01.017Z,28.67
2023-07-02T15:45:03.959Z,28.71
2023-07-02T15:48:07.308Z,28.71
2023-07-02T15:51:10.600Z,28.58
2023-07-02T15:54:13.744Z,28.62
2023-07-02T15:57:16.466Z,28.55
2023-07-02T16:00:19.556Z,28.34
2023-07-02T16:03:24.453Z,28.42
2023-07-02T16:06:35.171Z,28.42
2023-07-02T16:09:38.355Z,28.38
2023-07-02T16:12:43.014Z,28.30
2023-07-02T16:15:45.920Z,28.30
2023-07-02T16:18:48.721Z,28.32
2023-07-02T16:21:51.691Z,28.19
2023-07-02T16:24:54.230Z,28.17
2023-07-02T16:27:57.060Z,28.11
2023-07-02T16:30:59.635Z,28.03
2023-07-02T16:34:03.532Z,27.98
2023-07-02T16:37:06.537Z,27.87
2023-07-02T16:40:10.669Z,27.80
2023-07-02T16:43:13.225Z,27.85
2023-07-02T16:46:15.947Z,27.81
2023-07-02T16:49:19.022Z,27.76
2023-07-02T16:52:21.790Z,27.58
2023-07-02T16:55:24.275Z,27.50
2023-07-02T16:58:29.687Z,27.36
2023-07-02T17:01:32.315Z,27.13
2023-07-02T17:04:35.115Z,26.78
2023-07-02T17:07:37.965Z,26.52
2023-07-02T17:10:40.947Z,26.34
2023-07-02T17:13:43.532Z,26.26
2023-07-02T17:16:46.293Z,26.12
2023-07-02T17:19:51.314Z,26.06
2023-07-02T17:22:54.143Z,25.99
2023-07-02T17:26:07.855Z,25.85
2023-07-02T17:29:11.096Z,25.81
2023-07-02T17:32:13.808Z,25.77
2023-07-02T17:35:17.357Z,25.73
2023-07-02T17:38:23.126Z,25.68
2023-07-02T17:41:25.875Z,25.67
2023-07-02T17:44:31.720Z,25.64
2023-07-02T17:47:36.909Z,25.61
2023-07-02T17:50:39.443Z,25.57
2023-07-02T17:53:42.285Z,25.58
2023-07-02T17:56:50.001Z,25.56
2023-07-02T17:59:56.717Z,25.50
2023-07-02T18:02:59.649Z,25.42
2023-07-02T18:06:02.660Z,25.30
2023-07-02T18:09:06.071Z,25.27
2023-07-02T18:12:11.206Z,25.17
2023-07-02T18:15:14.264Z,25.09
2023-07-02T18:18:17.958Z,24.99
2023-07-02T18:21:20.821Z,24.91
2023-07-02T18:24:24.536Z,24.80
2023-07-02T18:27:27.321Z,24.72
2023-07-02T18:30:30.837Z,24.66
2023-07-02T18:33:33.835Z,24.56
2023-07-02T18:36:38.333Z,24.44
2023-07-02T18:39:42.246Z,24.35
2023-07-02T18:42:47.550Z,24.23
2023-07-02T18:45:53.416Z,24.11
2023-07-02T18:48:56.390Z,24.00
2023-07-02T18:51:58.981Z,23.86
2023-07-02T18:55:02.796Z,23.81
2023-07-02T18:58:05.749Z,23.70
2023-07-02T19:01:11.381Z,23.68
2023-07-02T19:04:14.569Z,23.63
2023-07-02T19:07:18.219Z,23.61
2023-07-02T19:10:23.139Z,23.54
2023-07-02T19:13:26.228Z,23.49
2023-07-02T19:16:29.171Z,23.38
2023-07-02T19:19:32.296Z,23.18
2023-07-02T19:22:34.800Z,23.17
2023-07-02T19:25:38.871Z,23.09
2023-07-02T19:28:41.889Z,23.07
2023-07-02T19:31:46.647Z,23.07
2023-07-02T19:34:49.166Z,23.01
2023-07-02T19:37:52.188Z,22.96
2023-07-02T19:40:57.481Z,22.84
2023-07-02T19:44:00.540Z,22.77
2023-07-02T19:47:03.672Z,22.76
2023-07-02T19:50:07.142Z,22.75
2023-07-02T19:53:09.935Z,22.64
2023-07-02T19:56:13.014Z,22.64
2023-07-02T19:59:15.853Z,22.55
2023-07-02T20:02:20.265Z,22.49
2023-07-02T20:05:23.388Z,22.44
2023-07-02T20:08:26.068Z,22.35
2023-07-02T20:11:28.865Z,22.28
2023-07-02T20:14:31.727Z,22.28
2023-07-02T20:17:37.176Z,22.20
2023-07-02T20:20:40.029Z,22.13
2023-07-02T20:23:42.877Z,22.08
2023-07-02T20:26:45.612Z,22.02
2023-07-02T20:29:50.545Z,21.96
2023-07-02T20:32:53.176Z,21.96
2023-07-02T20:35:56.143Z,21.91
2023-07-02T20:39:00.459Z,21.96
2023-07-02T20:42:05.660Z,21.92
2023-07-02T20:45:13.430Z,21.89
2023-07-02T20:48:16.455Z,21.89
2023-07-02T20:51:19.261Z,21.74
2023-07-02T20:54:22.019Z,21.60
2023-07-02T20:57:24.693Z,21.54
2023-07-02T21:00:27.497Z,21.55
2023-07-02T21:03:30.417Z,21.61
2023-07-02T21:06:37.878Z,21.54
2023-07-02T21:09:40.433Z,21.51
2023-07-02T21:12:43.500Z,21.50
2023-07-02T21:15:57.174Z,21.45
2023-07-02T21:19:00.435Z,21.35
2023-07-02T21:22:03.029Z,21.19
2023-07-02T21:25:06.308Z,21.12
2023-07-02T21:28:09.201Z,21.16
2023-07-02T21:31:15.609Z,21.21
2023-07-02T21:34:18.583Z,21.19
2023-07-02T21:37:22.248Z,21.14
2023-07-02T21:40:24.958Z,21.04
2023-07-02T21:43:27.946Z,20.95
2023-07-02T21:46:30.566Z,20.92
2023-07-02T21:49:33.513Z,20.81
2023-07-02T21:52:35.943Z,20.77
2023-07-02T21:55:38.866Z,20.66
2023-07-02T21:58:41.674Z,20.55
2023-07-02T22:01:44.689Z,20.44
2023-07-02T22:04:47.605Z,20.36
2023-07-02T22:07:50.287Z,20.38
2023-07-02T22:10:53.325Z,20.26
2023-07-02T22:13:56.066Z,20.21
2023-07-02T22:17:08.503Z,20.22
2023-07-02T22:20:14.757Z,20.13
2023-07-02T22:23:17.751Z,20.08
2023-07-02T22:26:20.214Z,20.03
2023-07-02T22:29:23.825Z,19.98
2023-07-02T22:32:26.315Z,19.99
2023-07-02T22:35:29.731Z,19.90
2023-07-02T22:38:32.246Z,19.85
2023-07-02T22:41:34.932Z,19.85
2023-07-02T22:44:37.846Z,19.82
2023-07-02T22:47:41.467Z,19.82
2023-07-02T22:50:44.025Z,19.82
2023-07-02T22:53:46.841Z,19.85
2023-07-02T22:56:49.292Z,19.83
2023-07-02T22:59:52.273Z,19.76
2023-07-02T23:02:54.770Z,19.66
2023-07-02T23:05:57.588Z,19.63
2023-07-02T23:09:00.313Z,19.60
2023-07-02T23:12:03.385Z,19.57
2023-07-02T23:15:14.023Z,19.54
2023-07-02T23:18:16.805Z,19.52
2023-07-02T23:21:19.511Z,19.49
2023-07-02T23:24:22.574Z,19.38
2023-07-02T23:27:26.550Z,19.28
2023-07-02T23:30:34.914Z,19.26
2023-07-02T23:33:38.409Z,19.19
2023-07-02T23:36:45.593Z,19.13
2023-07-02T23:39:52.432Z,19.12
2023-07-02T23:42:55.754Z,19.09
2023-07-02T23:45:58.239Z,19.02
2023-07-02T23:49:01.664Z,18.90
2023-07-02T23:52:04.287Z,18.83
2023-07-02T23:55:10.590Z,18.73
2023-07-02T23:58:13.129Z,18.68
